sensor_id;sensor_type;location;lat;lon;timestamp;P1;durP1;ratioP1;P2;durP2;ratioP2
40611;SDS011;26317;44.894;20.286;2023-12-20T00:01:29;95.43;;;78.93;;
40611;SDS011;26317;44.894;20.286;2023-12-20T00:04:08;97.20;;;78.43;;
40611;SDS011;26317;44.894;20.286;2023-12-20T00:06:56;99.80;;;82.40;;
40611;SDS011;26317;44.894;20.286;2023-12-20T00:09:38;92.40;;;77.70;;
40611;SDS011;26317;44.894;20.286;2023-12-20T00:15:26;104.30;;;81.45;;
40611;SDS011;26317;44.894;20.286;2023-12-20T00:18:08;99.78;;;79.30;;
40611;SDS011;26317;44.894;20.286;2023-12-20T00:20:48;96.60;;;80.65;;
40611;SDS011;26317;44.894;20.286;2023-12-20T00:23:27;96.93;;;78.95;;
40611;SDS011;26317;44.894;20.286;2023-12-20T00:26:04;97.40;;;78.40;;
40611;SDS011;26317;44.894;20.286;2023-12-20T00:28:53;97.80;;;79.57;;
40611;SDS011;26317;44.894;20.286;2023-12-20T00:31:33;98.03;;;78.47;;
40611;SDS011;26317;44.894;20.286;2023-12-20T00:34:08;100.07;;;79.95;;
40611;SDS011;26317;44.894;20.286;2023-12-20T00:36:46;101.03;;;80.18;;
40611;SDS011;26317;44.894;20.286;2023-12-20T00:39:31;104.78;;;82.28;;
40611;SDS011;26317;44.894;20.286;2023-12-20T00:42:18;100.07;;;79.15;;
40611;SDS011;26317;44.894;20.286;2023-12-20T00:45:01;110.50;;;85.85;;
40611;SDS011;26317;44.894;20.286;2023-12-20T00:47:41;97.00;;;80.47;;
40611;SDS011;26317;44.894;20.286;2023-12-20T00:50:23;101.78;;;81.10;;
40611;SDS011;26317;44.894;20.286;2023-12-20T00:53:05;95.90;;;79.50;;
40611;SDS011;26317;44.894;20.286;2023-12-20T00:55:48;94.15;;;75.80;;
40611;SDS011;26317;44.894;20.286;2023-12-20T00:58:25;94.82;;;76.57;;
40611;SDS011;26317;44.894;20.286;2023-12-20T01:01:04;95.50;;;75.72;;
40611;SDS011;26317;44.894;20.286;2023-12-20T01:03:41;91.95;;;75.32;;
40611;SDS011;26317;44.894;20.286;2023-12-20T01:06:32;92.50;;;74.68;;
40611;SDS011;26317;44.894;20.286;2023-12-20T01:09:24;94.25;;;78.13;;
40611;SDS011;26317;44.894;20.286;2023-12-20T01:12:10;97.45;;;78.97;;
40611;SDS011;26317;44.894;20.286;2023-12-20T01:14:47;100.97;;;78.57;;
40611;SDS011;26317;44.894;20.286;2023-12-20T01:17:25;99.90;;;80.45;;
40611;SDS011;26317;44.894;20.286;2023-12-20T01:20:10;96.50;;;77.03;;
40611;SDS011;26317;44.894;20.286;2023-12-20T01:22:53;97.75;;;77.72;;
40611;SDS011;26317;44.894;20.286;2023-12-20T01:25:29;94.07;;;75.00;;
40611;SDS011;26317;44.894;20.286;2023-12-20T01:28:11;99.75;;;76.80;;
40611;SDS011;26317;44.894;20.286;2023-12-20T01:30:51;90.90;;;75.72;;
40611;SDS011;26317;44.894;20.286;2023-12-20T01:33:47;98.65;;;77.68;;
40611;SDS011;26317;44.894;20.286;2023-12-20T01:36:25;95.10;;;76.22;;
40611;SDS011;26317;44.894;20.286;2023-12-20T01:39:01;90.13;;;73.97;;
40611;SDS011;26317;44.894;20.286;2023-12-20T01:41:56;90.68;;;75.90;;
40611;SDS011;26317;44.894;20.286;2023-12-20T01:44:47;94.53;;;77.78;;
40611;SDS011;26317;44.894;20.286;2023-12-20T01:47:27;97.45;;;74.68;;
40611;SDS011;26317;44.894;20.286;2023-12-20T01:50:07;93.68;;;73.50;;
40611;SDS011;26317;44.894;20.286;2023-12-20T01:52:55;92.18;;;74.10;;
40611;SDS011;26317;44.894;20.286;2023-12-20T01:55:42;87.97;;;72.45;;
40611;SDS011;26317;44.894;20.286;2023-12-20T01:58:32;94.00;;;76.50;;
40611;SDS011;26317;44.894;20.286;2023-12-20T02:01:23;94.85;;;77.82;;
40611;SDS011;26317;44.894;20.286;2023-12-20T02:04:06;100.05;;;80.22;;
40611;SDS011;26317;44.894;20.286;2023-12-20T02:06:50;105.88;;;83.95;;
40611;SDS011;26317;44.894;20.286;2023-12-20T02:09:30;104.40;;;82.90;;
40611;SDS011;26317;44.894;20.286;2023-12-20T02:12:06;94.13;;;74.63;;
40611;SDS011;26317;44.894;20.286;2023-12-20T02:14:43;96.63;;;78.00;;
40611;SDS011;26317;44.894;20.286;2023-12-20T02:17:24;99.03;;;79.53;;
40611;SDS011;26317;44.894;20.286;2023-12-20T02:20:01;97.93;;;78.63;;
40611;SDS011;26317;44.894;20.286;2023-12-20T02:22:53;91.65;;;74.90;;
40611;SDS011;26317;44.894;20.286;2023-12-20T02:25:35;93.38;;;75.05;;
40611;SDS011;26317;44.894;20.286;2023-12-20T02:28:16;93.10;;;74.40;;
40611;SDS011;26317;44.894;20.286;2023-12-20T02:30:54;97.45;;;78.03;;
40611;SDS011;26317;44.894;20.286;2023-12-20T02:33:31;90.55;;;73.45;;
40611;SDS011;26317;44.894;20.286;2023-12-20T02:36:10;94.95;;;78.85;;
40611;SDS011;26317;44.894;20.286;2023-12-20T02:38:58;96.20;;;74.90;;
40611;SDS011;26317;44.894;20.286;2023-12-20T02:41:38;92.75;;;77.07;;
40611;SDS011;26317;44.894;20.286;2023-12-20T02:44:19;93.30;;;77.70;;
40611;SDS011;26317;44.894;20.286;2023-12-20T02:46:58;95.28;;;76.15;;
40611;SDS011;26317;44.894;20.286;2023-12-20T02:49:48;96.35;;;78.70;;
40611;SDS011;26317;44.894;20.286;2023-12-20T02:52:22;93.00;;;76.30;;
40611;SDS011;26317;44.894;20.286;2023-12-20T02:55:10;92.53;;;75.07;;
40611;SDS011;26317;44.894;20.286;2023-12-20T02:57:47;95.82;;;77.55;;
40611;SDS011;26317;44.894;20.286;2023-12-20T03:00:18;95.47;;;77.80;;
40611;SDS011;26317;44.894;20.286;2023-12-20T03:03:09;89.85;;;75.60;;
40611;SDS011;26317;44.894;20.286;2023-12-20T03:05:47;93.50;;;75.20;;
40611;SDS011;26317;44.894;20.286;2023-12-20T03:08:20;93.53;;;76.65;;
40611;SDS011;26317;44.894;20.286;2023-12-20T03:11:09;92.65;;;77.30;;
40611;SDS011;26317;44.894;20.286;2023-12-20T03:13:50;87.85;;;73.75;;
40611;SDS011;26317;44.894;20.286;2023-12-20T03:16:29;88.38;;;74.10;;
40611;SDS011;26317;44.894;20.286;2023-12-20T03:19:06;95.55;;;76.40;;
40611;SDS011;26317;44.894;20.286;2023-12-20T03:21:44;88.30;;;73.57;;
40611;SDS011;26317;44.894;20.286;2023-12-20T03:24:18;93.47;;;74.03;;
40611;SDS011;26317;44.894;20.286;2023-12-20T03:27:01;91.53;;;74.75;;
40611;SDS011;26317;44.894;20.286;2023-12-20T03:29:40;88.68;;;71.95;;
40611;SDS011;26317;44.894;20.286;2023-12-20T03:32:25;91.65;;;73.88;;
40611;SDS011;26317;44.894;20.286;2023-12-20T03:35:07;89.15;;;71.95;;
40611;SDS011;26317;44.894;20.286;2023-12-20T03:38:00;90.50;;;74.60;;
40611;SDS011;26317;44.894;20.286;2023-12-20T03:40:43;90.50;;;75.03;;
40611;SDS011;26317;44.894;20.286;2023-12-20T03:43:41;94.25;;;75.82;;
40611;SDS011;26317;44.894;20.286;2023-12-20T03:46:19;92.75;;;76.15;;
40611;SDS011;26317;44.894;20.286;2023-12-20T03:48:52;94.53;;;75.15;;
40611;SDS011;26317;44.894;20.286;2023-12-20T03:51:32;91.28;;;78.60;;
40611;SDS011;26317;44.894;20.286;2023-12-20T03:54:13;93.60;;;79.18;;
40611;SDS011;26317;44.894;20.286;2023-12-20T03:56:50;93.80;;;78.47;;
40611;SDS011;26317;44.894;20.286;2023-12-20T03:59:40;102.10;;;83.85;;
40611;SDS011;26317;44.894;20.286;2023-12-20T04:02:15;98.93;;;80.90;;
40611;SDS011;26317;44.894;20.286;2023-12-20T04:04:55;102.43;;;83.07;;
40611;SDS011;26317;44.894;20.286;2023-12-20T04:07:36;101.78;;;83.22;;
40611;SDS011;26317;44.894;20.286;2023-12-20T04:10:21;106.15;;;88.20;;
40611;SDS011;26317;44.894;20.286;2023-12-20T04:16:02;106.60;;;88.38;;
40611;SDS011;26317;44.894;20.286;2023-12-20T04:18:40;104.60;;;85.55;;
40611;SDS011;26317;44.894;20.286;2023-12-20T04:21:32;107.17;;;85.53;;
40611;SDS011;26317;44.894;20.286;2023-12-20T04:24:08;101.80;;;83.18;;
40611;SDS011;26317;44.894;20.286;2023-12-20T04:26:43;103.38;;;82.32;;
40611;SDS011;26317;44.894;20.286;2023-12-20T04:29:24;99.93;;;81.95;;
40611;SDS011;26317;44.894;20.286;2023-12-20T04:32:07;97.88;;;78.90;;
40611;SDS011;26317;44.894;20.286;2023-12-20T04:34:46;96.05;;;78.90;;
40611;SDS011;26317;44.894;20.286;2023-12-20T04:37:23;96.38;;;81.40;;
40611;SDS011;26317;44.894;20.286;2023-12-20T04:39:59;97.95;;;78.43;;
40611;SDS011;26317;44.894;20.286;2023-12-20T04:42:35;95.88;;;76.82;;
40611;SDS011;26317;44.894;20.286;2023-12-20T04:45:17;95.35;;;77.63;;
40611;SDS011;26317;44.894;20.286;2023-12-20T04:47:58;88.20;;;74.72;;
40611;SDS011;26317;44.894;20.286;2023-12-20T04:50:39;92.25;;;74.45;;
40611;SDS011;26317;44.894;20.286;2023-12-20T04:53:34;90.22;;;74.22;;
40611;SDS011;26317;44.894;20.286;2023-12-20T04:56:10;89.68;;;74.03;;
40611;SDS011;26317;44.894;20.286;2023-12-20T04:58:47;93.82;;;74.25;;
40611;SDS011;26317;44.894;20.286;2023-12-20T05:01:24;86.20;;;72.68;;
40611;SDS011;26317;44.894;20.286;2023-12-20T05:04:18;91.20;;;74.15;;
40611;SDS011;26317;44.894;20.286;2023-12-20T05:06:51;85.07;;;72.93;;
40611;SDS011;26317;44.894;20.286;2023-12-20T05:09:26;98.80;;;78.88;;
40611;SDS011;26317;44.894;20.286;2023-12-20T05:11:59;102.68;;;82.15;;
40611;SDS011;26317;44.894;20.286;2023-12-20T05:14:36;103.88;;;83.55;;
40611;SDS011;26317;44.894;20.286;2023-12-20T05:19:56;98.88;;;81.45;;
40611;SDS011;26317;44.894;20.286;2023-12-20T05:22:30;100.95;;;79.90;;
40611;SDS011;26317;44.894;20.286;2023-12-20T05:25:09;101.18;;;82.35;;
40611;SDS011;26317;44.894;20.286;2023-12-20T05:27:55;97.28;;;79.97;;
40611;SDS011;26317;44.894;20.286;2023-12-20T05:30:34;98.82;;;80.25;;
40611;SDS011;26317;44.894;20.286;2023-12-20T05:33:21;103.97;;;84.30;;
40611;SDS011;26317;44.894;20.286;2023-12-20T05:36:01;101.93;;;83.20;;
40611;SDS011;26317;44.894;20.286;2023-12-20T05:38:56;109.28;;;89.50;;
40611;SDS011;26317;44.894;20.286;2023-12-20T05:41:32;116.13;;;90.47;;
40611;SDS011;26317;44.894;20.286;2023-12-20T05:44:17;108.70;;;87.82;;
40611;SDS011;26317;44.894;20.286;2023-12-20T05:46:55;112.53;;;88.10;;
40611;SDS011;26317;44.894;20.286;2023-12-20T05:49:39;114.90;;;91.00;;
40611;SDS011;26317;44.894;20.286;2023-12-20T05:52:30;110.57;;;88.30;;
40611;SDS011;26317;44.894;20.286;2023-12-20T05:58:07;118.57;;;95.32;;
40611;SDS011;26317;44.894;20.286;2023-12-20T06:00:46;117.25;;;94.82;;
40611;SDS011;26317;44.894;20.286;2023-12-20T06:03:22;118.20;;;94.40;;
40611;SDS011;26317;44.894;20.286;2023-12-20T06:06:08;119.55;;;94.90;;
40611;SDS011;26317;44.894;20.286;2023-12-20T06:08:52;133.85;;;105.22;;
40611;SDS011;26317;44.894;20.286;2023-12-20T06:11:37;121.78;;;97.10;;
40611;SDS011;26317;44.894;20.286;2023-12-20T06:14:18;124.32;;;95.60;;
40611;SDS011;26317;44.894;20.286;2023-12-20T06:16:55;112.43;;;91.80;;
40611;SDS011;26317;44.894;20.286;2023-12-20T06:19:32;114.05;;;92.38;;
40611;SDS011;26317;44.894;20.286;2023-12-20T06:22:15;120.55;;;98.85;;
40611;SDS011;26317;44.894;20.286;2023-12-20T06:24:57;127.15;;;103.38;;
40611;SDS011;26317;44.894;20.286;2023-12-20T06:27:45;136.48;;;113.28;;
40611;SDS011;26317;44.894;20.286;2023-12-20T06:30:24;138.63;;;114.95;;
40611;SDS011;26317;44.894;20.286;2023-12-20T06:33:06;138.98;;;115.30;;
40611;SDS011;26317;44.894;20.286;2023-12-20T06:35:47;141.93;;;116.30;;
40611;SDS011;26317;44.894;20.286;2023-12-20T06:38:22;143.82;;;117.63;;
40611;SDS011;26317;44.894;20.286;2023-12-20T06:41:08;145.60;;;120.13;;
40611;SDS011;26317;44.894;20.286;2023-12-20T06:43:53;144.18;;;117.00;;
40611;SDS011;26317;44.894;20.286;2023-12-20T06:46:29;146.52;;;120.10;;
40611;SDS011;26317;44.894;20.286;2023-12-20T06:49:23;154.80;;;126.13;;
40611;SDS011;26317;44.894;20.286;2023-12-20T06:51:59;164.50;;;134.52;;
40611;SDS011;26317;44.894;20.286;2023-12-20T06:54:47;156.68;;;129.60;;
40611;SDS011;26317;44.894;20.286;2023-12-20T06:57:35;157.43;;;127.38;;
40611;SDS011;26317;44.894;20.286;2023-12-20T07:00:10;174.85;;;130.65;;
40611;SDS011;26317;44.894;20.286;2023-12-20T07:02:55;156.00;;;123.38;;
40611;SDS011;26317;44.894;20.286;2023-12-20T07:05:38;150.10;;;124.03;;
40611;SDS011;26317;44.894;20.286;2023-12-20T07:08:12;173.55;;;132.98;;
40611;SDS011;26317;44.894;20.286;2023-12-20T07:10:54;172.50;;;129.52;;
40611;SDS011;26317;44.894;20.286;2023-12-20T07:13:41;178.63;;;138.60;;
40611;SDS011;26317;44.894;20.286;2023-12-20T07:16:28;176.13;;;141.40;;
40611;SDS011;26317;44.894;20.286;2023-12-20T07:19:09;172.20;;;137.65;;
40611;SDS011;26317;44.894;20.286;2023-12-20T07:21:56;169.25;;;138.35;;
40611;SDS011;26317;44.894;20.286;2023-12-20T07:24:32;174.05;;;140.93;;
40611;SDS011;26317;44.894;20.286;2023-12-20T07:27:12;183.68;;;145.27;;
40611;SDS011;26317;44.894;20.286;2023-12-20T07:30:01;190.48;;;145.85;;
40611;SDS011;26317;44.894;20.286;2023-12-20T07:32:37;173.88;;;138.40;;
40611;SDS011;26317;44.894;20.286;2023-12-20T07:35:18;186.50;;;144.40;;
40611;SDS011;26317;44.894;20.286;2023-12-20T07:37:56;177.27;;;140.40;;
40611;SDS011;26317;44.894;20.286;2023-12-20T07:40:41;170.85;;;135.63;;
40611;SDS011;26317;44.894;20.286;2023-12-20T07:43:16;171.07;;;133.65;;
40611;SDS011;26317;44.894;20.286;2023-12-20T07:45:53;175.95;;;138.07;;
40611;SDS011;26317;44.894;20.286;2023-12-20T07:48:34;188.63;;;144.70;;
40611;SDS011;26317;44.894;20.286;2023-12-20T07:51:12;191.55;;;148.10;;
40611;SDS011;26317;44.894;20.286;2023-12-20T07:53:51;188.77;;;144.65;;
40611;SDS011;26317;44.894;20.286;2023-12-20T07:56:27;182.23;;;141.77;;
40611;SDS011;26317;44.894;20.286;2023-12-20T08:01:49;170.75;;;126.53;;
40611;SDS011;26317;44.894;20.286;2023-12-20T08:04:24;159.23;;;117.88;;
40611;SDS011;26317;44.894;20.286;2023-12-20T08:07:08;142.98;;;110.00;;
40611;SDS011;26317;44.894;20.286;2023-12-20T08:09:48;144.30;;;110.95;;
40611;SDS011;26317;44.894;20.286;2023-12-20T08:12:23;148.90;;;110.20;;
40611;SDS011;26317;44.894;20.286;2023-12-20T08:14:57;153.98;;;111.32;;
40611;SDS011;26317;44.894;20.286;2023-12-20T08:17:54;146.20;;;106.97;;
40611;SDS011;26317;44.894;20.286;2023-12-20T08:20:30;147.68;;;107.55;;
40611;SDS011;26317;44.894;20.286;2023-12-20T08:23:21;143.50;;;115.05;;
40611;SDS011;26317;44.894;20.286;2023-12-20T08:28:41;134.63;;;109.75;;
40611;SDS011;26317;44.894;20.286;2023-12-20T08:31:20;136.80;;;107.55;;
40611;SDS011;26317;44.894;20.286;2023-12-20T08:33:58;137.40;;;111.47;;
40611;SDS011;26317;44.894;20.286;2023-12-20T08:36:39;187.00;;;133.85;;
40611;SDS011;26317;44.894;20.286;2023-12-20T08:39:21;153.27;;;117.18;;
40611;SDS011;26317;44.894;20.286;2023-12-20T08:41:57;211.65;;;147.55;;
40611;SDS011;26317;44.894;20.286;2023-12-20T08:44:50;241.02;;;162.95;;
40611;SDS011;26317;44.894;20.286;2023-12-20T08:47:28;215.77;;;150.95;;
40611;SDS011;26317;44.894;20.286;2023-12-20T08:50:24;168.40;;;125.32;;
40611;SDS011;26317;44.894;20.286;2023-12-20T08:53:14;141.23;;;113.35;;
40611;SDS011;26317;44.894;20.286;2023-12-20T08:55:47;140.70;;;113.65;;
40611;SDS011;26317;44.894;20.286;2023-12-20T08:58:31;150.55;;;118.07;;
40611;SDS011;26317;44.894;20.286;2023-12-20T09:01:12;160.25;;;122.85;;
40611;SDS011;26317;44.894;20.286;2023-12-20T09:03:50;145.57;;;116.97;;
40611;SDS011;26317;44.894;20.286;2023-12-20T09:06:30;146.18;;;116.80;;
40611;SDS011;26317;44.894;20.286;2023-12-20T09:09:08;149.50;;;113.32;;
40611;SDS011;26317;44.894;20.286;2023-12-20T09:11:42;135.48;;;111.13;;
40611;SDS011;26317;44.894;20.286;2023-12-20T09:14:18;132.45;;;109.28;;
40611;SDS011;26317;44.894;20.286;2023-12-20T09:17:01;130.40;;;103.45;;
40611;SDS011;26317;44.894;20.286;2023-12-20T09:19:45;127.85;;;104.30;;
40611;SDS011;26317;44.894;20.286;2023-12-20T09:22:34;128.65;;;105.00;;
40611;SDS011;26317;44.894;20.286;2023-12-20T09:25:15;122.07;;;99.10;;
40611;SDS011;26317;44.894;20.286;2023-12-20T09:27:55;122.13;;;99.85;;
40611;SDS011;26317;44.894;20.286;2023-12-20T09:30:51;123.47;;;97.05;;
40611;SDS011;26317;44.894;20.286;2023-12-20T09:33:26;122.65;;;99.05;;
40611;SDS011;26317;44.894;20.286;2023-12-20T09:36:08;128.93;;;103.45;;
40611;SDS011;26317;44.894;20.286;2023-12-20T09:38:49;121.03;;;98.53;;
40611;SDS011;26317;44.894;20.286;2023-12-20T09:41:23;129.30;;;102.13;;
40611;SDS011;26317;44.894;20.286;2023-12-20T09:44:09;128.65;;;102.93;;
40611;SDS011;26317;44.894;20.286;2023-12-20T09:46:55;127.63;;;103.50;;
40611;SDS011;26317;44.894;20.286;2023-12-20T09:49:39;125.28;;;103.93;;
40611;SDS011;26317;44.894;20.286;2023-12-20T09:52:26;135.75;;;105.57;;
40611;SDS011;26317;44.894;20.286;2023-12-20T09:55:14;130.85;;;103.22;;
40611;SDS011;26317;44.894;20.286;2023-12-20T09:57:55;122.18;;;101.35;;
40611;SDS011;26317;44.894;20.286;2023-12-20T10:00:31;128.50;;;101.93;;
40611;SDS011;26317;44.894;20.286;2023-12-20T10:03:04;122.75;;;99.78;;
40611;SDS011;26317;44.894;20.286;2023-12-20T10:05:52;120.70;;;96.88;;
40611;SDS011;26317;44.894;20.286;2023-12-20T10:08:33;117.97;;;98.18;;
40611;SDS011;26317;44.894;20.286;2023-12-20T10:11:32;118.55;;;96.65;;
40611;SDS011;26317;44.894;20.286;2023-12-20T10:14:11;117.75;;;97.35;;
40611;SDS011;26317;44.894;20.286;2023-12-20T10:16:43;115.45;;;98.28;;
40611;SDS011;26317;44.894;20.286;2023-12-20T10:19:17;119.68;;;98.47;;
40611;SDS011;26317;44.894;20.286;2023-12-20T10:21:57;154.27;;;116.25;;
40611;SDS011;26317;44.894;20.286;2023-12-20T10:24:34;117.28;;;97.63;;
40611;SDS011;26317;44.894;20.286;2023-12-20T10:27:20;122.15;;;102.03;;
40611;SDS011;26317;44.894;20.286;2023-12-20T10:29:59;124.13;;;102.95;;
40611;SDS011;26317;44.894;20.286;2023-12-20T10:32:55;128.38;;;105.55;;
40611;SDS011;26317;44.894;20.286;2023-12-20T10:35:33;144.02;;;114.20;;
40611;SDS011;26317;44.894;20.286;2023-12-20T10:38:13;141.13;;;115.18;;
40611;SDS011;26317;44.894;20.286;2023-12-20T10:40:52;144.00;;;118.10;;
40611;SDS011;26317;44.894;20.286;2023-12-20T10:43:36;155.32;;;124.07;;
40611;SDS011;26317;44.894;20.286;2023-12-20T10:46:17;151.65;;;121.82;;
40611;SDS011;26317;44.894;20.286;2023-12-20T10:48:53;163.02;;;127.38;;
40611;SDS011;26317;44.894;20.286;2023-12-20T10:51:32;162.55;;;126.22;;
40611;SDS011;26317;44.894;20.286;2023-12-20T10:54:18;151.23;;;116.97;;
40611;SDS011;26317;44.894;20.286;2023-12-20T10:57:15;137.13;;;109.72;;
40611;SDS011;26317;44.894;20.286;2023-12-20T11:00:06;122.53;;;102.40;;
40611;SDS011;26317;44.894;20.286;2023-12-20T11:02:46;133.68;;;106.35;;
40611;SDS011;26317;44.894;20.286;2023-12-20T11:05:33;142.18;;;108.07;;
40611;SDS011;26317;44.894;20.286;2023-12-20T11:08:20;148.68;;;116.10;;
40611;SDS011;26317;44.894;20.286;2023-12-20T11:11:04;145.23;;;114.03;;
40611;SDS011;26317;44.894;20.286;2023-12-20T11:13:54;129.75;;;107.07;;
40611;SDS011;26317;44.894;20.286;2023-12-20T11:16:41;125.07;;;103.45;;
40611;SDS011;26317;44.894;20.286;2023-12-20T11:19:22;123.72;;;101.72;;
40611;SDS011;26317;44.894;20.286;2023-12-20T11:22:04;131.02;;;103.03;;
40611;SDS011;26317;44.894;20.286;2023-12-20T11:24:48;126.00;;;101.80;;
40611;SDS011;26317;44.894;20.286;2023-12-20T11:27:29;119.57;;;99.25;;
40611;SDS011;26317;44.894;20.286;2023-12-20T11:30:07;116.95;;;95.00;;
40611;SDS011;26317;44.894;20.286;2023-12-20T11:32:53;112.03;;;92.10;;
40611;SDS011;26317;44.894;20.286;2023-12-20T11:35:34;112.35;;;90.18;;
40611;SDS011;26317;44.894;20.286;2023-12-20T11:38:13;107.15;;;87.57;;
40611;SDS011;26317;44.894;20.286;2023-12-20T11:40:58;107.70;;;89.88;;
40611;SDS011;26317;44.894;20.286;2023-12-20T11:43:36;113.28;;;90.57;;
40611;SDS011;26317;44.894;20.286;2023-12-20T11:46:22;107.43;;;89.05;;
40611;SDS011;26317;44.894;20.286;2023-12-20T11:51:49;110.43;;;91.65;;
40611;SDS011;26317;44.894;20.286;2023-12-20T11:54:22;117.65;;;91.90;;
40611;SDS011;26317;44.894;20.286;2023-12-20T11:57:05;106.30;;;90.93;;
40611;SDS011;26317;44.894;20.286;2023-12-20T11:59:53;107.70;;;89.32;;
40611;SDS011;26317;44.894;20.286;2023-12-20T12:02:59;112.38;;;93.15;;
40611;SDS011;26317;44.894;20.286;2023-12-20T12:05:42;121.15;;;97.05;;
40611;SDS011;26317;44.894;20.286;2023-12-20T12:08:21;120.70;;;99.38;;
40611;SDS011;26317;44.894;20.286;2023-12-20T12:11:00;122.60;;;99.95;;
40611;SDS011;26317;44.894;20.286;2023-12-20T12:13:40;118.45;;;101.18;;
40611;SDS011;26317;44.894;20.286;2023-12-20T12:16:16;126.03;;;102.70;;
40611;SDS011;26317;44.894;20.286;2023-12-20T12:19:02;120.47;;;99.05;;
40611;SDS011;26317;44.894;20.286;2023-12-20T12:21:51;124.65;;;99.53;;
40611;SDS011;26317;44.894;20.286;2023-12-20T12:24:44;119.57;;;100.20;;
40611;SDS011;26317;44.894;20.286;2023-12-20T12:27:27;119.05;;;98.50;;
40611;SDS011;26317;44.894;20.286;2023-12-20T12:30:01;128.27;;;102.68;;
40611;SDS011;26317;44.894;20.286;2023-12-20T12:32:47;125.60;;;105.07;;
40611;SDS011;26317;44.894;20.286;2023-12-20T12:35:28;123.57;;;107.45;;
40611;SDS011;26317;44.894;20.286;2023-12-20T12:38:13;131.65;;;109.18;;
40611;SDS011;26317;44.894;20.286;2023-12-20T12:40:54;132.98;;;109.60;;
40611;SDS011;26317;44.894;20.286;2023-12-20T12:43:30;129.55;;;107.80;;
40611;SDS011;26317;44.894;20.286;2023-12-20T12:46:13;128.45;;;105.93;;
40611;SDS011;26317;44.894;20.286;2023-12-20T12:48:52;124.38;;;103.68;;
40611;SDS011;26317;44.894;20.286;2023-12-20T12:51:30;136.88;;;111.53;;
40611;SDS011;26317;44.894;20.286;2023-12-20T12:54:39;132.60;;;109.18;;
40611;SDS011;26317;44.894;20.286;2023-12-20T12:57:16;135.13;;;112.35;;
40611;SDS011;26317;44.894;20.286;2023-12-20T12:59:53;135.50;;;109.88;;
40611;SDS011;26317;44.894;20.286;2023-12-20T13:02:26;132.80;;;112.35;;
40611;SDS011;26317;44.894;20.286;2023-12-20T13:05:05;125.78;;;107.57;;
40611;SDS011;26317;44.894;20.286;2023-12-20T13:07:47;129.85;;;109.13;;
40611;SDS011;26317;44.894;20.286;2023-12-20T13:13:31;145.20;;;118.38;;
40611;SDS011;26317;44.894;20.286;2023-12-20T13:16:14;143.13;;;118.90;;
40611;SDS011;26317;44.894;20.286;2023-12-20T13:18:59;151.15;;;123.32;;
40611;SDS011;26317;44.894;20.286;2023-12-20T13:21:39;154.90;;;124.15;;
40611;SDS011;26317;44.894;20.286;2023-12-20T13:24:12;144.80;;;120.03;;
40611;SDS011;26317;44.894;20.286;2023-12-20T13:26:53;147.70;;;125.03;;
40611;SDS011;26317;44.894;20.286;2023-12-20T13:32:12;145.27;;;119.55;;
40611;SDS011;26317;44.894;20.286;2023-12-20T13:34:45;154.10;;;125.15;;
40611;SDS011;26317;44.894;20.286;2023-12-20T13:37:28;157.15;;;126.65;;
40611;SDS011;26317;44.894;20.286;2023-12-20T13:40:11;151.85;;;127.50;;
40611;SDS011;26317;44.894;20.286;2023-12-20T13:42:56;151.88;;;123.53;;
40611;SDS011;26317;44.894;20.286;2023-12-20T13:45:49;153.15;;;123.60;;
40611;SDS011;26317;44.894;20.286;2023-12-20T13:48:29;147.80;;;124.53;;
40611;SDS011;26317;44.894;20.286;2023-12-20T13:51:04;155.60;;;124.82;;
40611;SDS011;26317;44.894;20.286;2023-12-20T13:53:37;152.23;;;128.10;;
40611;SDS011;26317;44.894;20.286;2023-12-20T13:56:12;147.15;;;124.13;;
40611;SDS011;26317;44.894;20.286;2023-12-20T14:01:36;143.90;;;122.70;;
40611;SDS011;26317;44.894;20.286;2023-12-20T14:04:12;150.52;;;125.32;;
40611;SDS011;26317;44.894;20.286;2023-12-20T14:07:11;160.65;;;130.23;;
40611;SDS011;26317;44.894;20.286;2023-12-20T14:09:51;151.05;;;126.18;;
40611;SDS011;26317;44.894;20.286;2023-12-20T14:12:31;150.60;;;129.65;;
40611;SDS011;26317;44.894;20.286;2023-12-20T14:15:13;160.07;;;135.75;;
40611;SDS011;26317;44.894;20.286;2023-12-20T14:17:43;161.90;;;130.52;;
40611;SDS011;26317;44.894;20.286;2023-12-20T14:22:44;165.50;;;133.97;;
40611;SDS011;26317;44.894;20.286;2023-12-20T14:25:15;165.57;;;135.90;;
40611;SDS011;26317;44.894;20.286;2023-12-20T14:27:46;168.55;;;138.32;;
40611;SDS011;26317;44.894;20.286;2023-12-20T14:30:19;168.63;;;141.27;;
40611;SDS011;26317;44.894;20.286;2023-12-20T14:32:50;182.75;;;148.48;;
40611;SDS011;26317;44.894;20.286;2023-12-20T14:35:21;175.15;;;143.63;;
40611;SDS011;26317;44.894;20.286;2023-12-20T14:37:53;178.43;;;142.55;;
40611;SDS011;26317;44.894;20.286;2023-12-20T14:40:24;188.48;;;146.60;;
40611;SDS011;26317;44.894;20.286;2023-12-20T14:42:54;182.32;;;151.10;;
40611;SDS011;26317;44.894;20.286;2023-12-20T14:45:30;184.55;;;144.10;;
40611;SDS011;26317;44.894;20.286;2023-12-20T14:48:01;221.30;;;181.50;;
40611;SDS011;26317;44.894;20.286;2023-12-20T14:50:32;208.02;;;172.10;;
40611;SDS011;26317;44.894;20.286;2023-12-20T14:53:03;207.25;;;167.85;;
40611;SDS011;26317;44.894;20.286;2023-12-20T14:55:34;209.65;;;169.57;;
40611;SDS011;26317;44.894;20.286;2023-12-20T14:58:06;210.27;;;167.18;;
40611;SDS011;26317;44.894;20.286;2023-12-20T15:03:10;189.75;;;152.93;;
40611;SDS011;26317;44.894;20.286;2023-12-20T15:05:43;187.75;;;151.15;;
40611;SDS011;26317;44.894;20.286;2023-12-20T15:08:15;188.18;;;155.82;;
40611;SDS011;26317;44.894;20.286;2023-12-20T15:10:45;191.63;;;153.80;;
40611;SDS011;26317;44.894;20.286;2023-12-20T15:13:16;197.15;;;158.38;;
40611;SDS011;26317;44.894;20.286;2023-12-20T15:15:49;166.82;;;137.27;;
40611;SDS011;26317;44.894;20.286;2023-12-20T15:18:20;133.23;;;110.30;;
40611;SDS011;26317;44.894;20.286;2023-12-20T15:20:51;124.18;;;99.10;;
40611;SDS011;26317;44.894;20.286;2023-12-20T15:25:53;132.80;;;100.35;;
40611;SDS011;26317;44.894;20.286;2023-12-20T15:28:23;127.88;;;99.63;;
40611;SDS011;26317;44.894;20.286;2023-12-20T15:30:56;126.90;;;95.13;;
40611;SDS011;26317;44.894;20.286;2023-12-20T15:33:27;128.00;;;97.38;;
40611;SDS011;26317;44.894;20.286;2023-12-20T15:35:58;129.05;;;96.75;;
40611;SDS011;26317;44.894;20.286;2023-12-20T15:38:28;121.93;;;94.22;;
40611;SDS011;26317;44.894;20.286;2023-12-20T15:40:59;125.95;;;97.40;;
40611;SDS011;26317;44.894;20.286;2023-12-20T15:43:30;135.77;;;98.55;;
40611;SDS011;26317;44.894;20.286;2023-12-20T15:46:03;127.13;;;95.03;;